createdAt,value
2019-04-10T00:01:07.465Z,15.90
2019-04-10T00:02:41.751Z,15.13
2019-04-10T00:04:17.379Z,16.00
2019-04-10T00:05:53.153Z,15.40
2019-04-10T00:07:29.138Z,15.00
2019-04-10T00:09:06.624Z,14.77
2019-04-10T00:10:43.470Z,14.77
2019-04-10T00:12:19.210Z,16.00
2019-04-10T00:13:55.349Z,14.97
2019-04-10T00:15:31.003Z,15.03
2019-04-10T00:17:06.961Z,15.70
2019-04-10T00:18:42.610Z,14.87
2019-04-10T00:20:18.428Z,15.60
2019-04-10T00:21:54.046Z,15.18
2019-04-10T00:23:29.572Z,14.20
2019-04-10T00:25:06.525Z,15.60
2019-04-10T00:26:42.089Z,15.00
2019-04-10T00:28:17.876Z,15.93
2019-04-10T00:29:54.383Z,15.03
2019-04-10T00:31:29.941Z,14.57
2019-04-10T00:33:05.552Z,15.23
2019-04-10T00:34:42.067Z,14.58
2019-04-10T00:36:18.747Z,15.07
2019-04-10T00:37:55.460Z,15.17
2019-04-10T00:39:31.055Z,16.03
2019-04-10T00:41:06.581Z,15.27
2019-04-10T00:42:43.225Z,14.43
2019-04-10T00:44:19.445Z,14.67
2019-04-10T00:45:55.023Z,15.33
2019-04-10T00:47:30.918Z,16.20
2019-04-10T00:49:07.191Z,15.33
2019-04-10T00:50:42.834Z,14.83
2019-04-10T00:52:18.352Z,14.63
2019-04-10T00:53:53.951Z,15.53
2019-04-10T00:55:30.165Z,14.27
2019-04-10T00:57:05.819Z,15.30
2019-04-10T00:58:41.600Z,14.65
2019-04-10T01:00:17.479Z,15.78
2019-04-10T01:01:54.195Z,15.03
2019-04-10T01:03:46.659Z,15.70
2019-04-10T01:05:22.905Z,14.90
2019-04-10T01:06:58.414Z,15.97
2019-04-10T01:08:34.860Z,14.53
2019-04-10T01:10:12.325Z,14.17
2019-04-10T01:11:47.978Z,16.42
2019-04-10T01:13:23.522Z,16.47
2019-04-10T01:15:00.174Z,16.57
2019-04-10T01:16:35.833Z,15.43
2019-04-10T01:18:11.358Z,14.20
2019-04-10T01:19:48.160Z,15.27
2019-04-10T01:21:23.656Z,15.03
2019-04-10T01:22:59.450Z,14.90
2019-04-10T01:24:35.573Z,15.33
2019-04-10T01:26:11.174Z,14.87
2019-04-10T01:27:47.905Z,17.47
2019-04-10T01:29:23.573Z,15.80
2019-04-10T01:30:59.197Z,15.13
2019-04-10T01:32:34.709Z,16.77
2019-04-10T01:34:11.431Z,15.53
2019-04-10T01:35:47.018Z,15.07
2019-04-10T01:37:22.996Z,14.70
2019-04-10T01:38:58.452Z,15.57
2019-04-10T01:40:35.192Z,16.27
2019-04-10T01:42:10.752Z,15.73
2019-04-10T01:43:46.816Z,15.63
2019-04-10T01:45:22.330Z,15.40
2019-04-10T01:46:59.035Z,16.27
2019-04-10T01:48:34.898Z,15.47
2019-04-10T01:50:10.669Z,15.97
2019-04-10T01:51:46.283Z,15.83
2019-04-10T01:53:21.870Z,14.40
2019-04-10T01:54:57.611Z,14.83
2019-04-10T01:56:36.043Z,15.10
2019-04-10T01:58:14.564Z,14.27
2019-04-10T01:59:51.273Z,17.25
2019-04-10T02:01:28.459Z,16.00
2019-04-10T02:03:03.988Z,16.87
2019-04-10T02:04:39.666Z,16.30
2019-04-10T02:06:15.223Z,15.83
2019-04-10T02:08:02.099Z,17.57
2019-04-10T02:09:29.771Z,16.83
2019-04-10T02:11:05.308Z,15.50
2019-04-10T02:12:41.034Z,16.70
2019-04-10T02:14:16.527Z,17.20
2019-04-10T02:15:52.431Z,17.90
2019-04-10T02:17:28.569Z,16.70
2019-04-10T02:19:04.423Z,16.97
2019-04-10T02:20:39.987Z,16.10
2019-04-10T02:22:16.091Z,16.50
2019-04-10T02:23:52.408Z,16.33
2019-04-10T02:25:28.447Z,15.73
2019-04-10T02:27:04.325Z,15.83
2019-04-10T02:28:40.169Z,16.43
2019-04-10T02:30:17.532Z,15.93
2019-04-10T02:31:54.931Z,17.40
2019-04-10T02:33:31.402Z,16.60
2019-04-10T02:35:13.172Z,18.42
2019-04-10T02:36:46.961Z,16.53
2019-04-10T02:38:40.076Z,16.67
2019-04-10T02:40:02.295Z,16.77
2019-04-10T02:41:38.583Z,16.13
2019-04-10T02:43:15.597Z,16.60
2019-04-10T02:44:52.319Z,16.30
2019-04-10T02:46:29.289Z,16.67
2019-04-10T02:48:06.157Z,15.30
2019-04-10T02:49:42.593Z,13.80
2019-04-10T02:51:19.537Z,14.30
2019-04-10T02:52:57.105Z,14.70
2019-04-10T02:54:33.529Z,16.85
2019-04-10T02:56:09.248Z,15.97
2019-04-10T02:57:45.941Z,15.47
2019-04-10T02:59:23.948Z,16.00
2019-04-10T03:01:01.157Z,15.47
2019-04-10T03:02:38.653Z,14.47
2019-04-10T03:04:14.170Z,15.67
2019-04-10T03:05:51.053Z,15.80
2019-04-10T03:07:28.206Z,16.33
2019-04-10T03:09:18.957Z,15.97
2019-04-10T03:10:49.462Z,16.27
2019-04-10T03:12:21.950Z,16.37
2019-04-10T03:13:59.269Z,15.63
2019-04-10T03:15:35.968Z,17.02
2019-04-10T03:17:12.226Z,16.23
2019-04-10T03:18:47.830Z,16.47
2019-04-10T03:20:24.640Z,15.50
2019-04-10T03:22:01.725Z,16.42
2019-04-10T03:23:37.804Z,17.37
2019-04-10T03:25:14.945Z,17.17
2019-04-10T03:26:50.655Z,16.73
2019-04-10T03:28:27.075Z,16.77
2019-04-10T03:30:03.074Z,17.13
2019-04-10T03:31:39.609Z,17.53
2019-04-10T03:33:35.292Z,16.93
2019-04-10T03:35:15.273Z,17.00
2019-04-10T03:36:51.717Z,15.97
2019-04-10T03:38:27.892Z,16.50
2019-04-10T03:40:03.633Z,16.50
2019-04-10T03:41:40.109Z,15.53
2019-04-10T03:43:15.767Z,14.90
2019-04-10T03:44:51.435Z,14.73
2019-04-10T03:46:27.705Z,16.40
2019-04-10T03:48:04.773Z,15.50
2019-04-10T03:49:40.769Z,16.57
2019-04-10T03:51:18.552Z,17.03
2019-04-10T03:52:54.177Z,16.53
2019-04-10T03:54:30.203Z,17.23
2019-04-10T03:56:07.557Z,16.87
2019-04-10T03:57:43.236Z,17.05
2019-04-10T03:59:20.118Z,16.80
2019-04-10T04:00:56.143Z,16.42
2019-04-10T04:02:31.679Z,18.83
2019-04-10T04:04:07.203Z,18.73
2019-04-10T04:05:43.098Z,17.57
2019-04-10T04:07:18.627Z,16.37
2019-04-10T04:09:04.277Z,16.80
2019-04-10T04:10:31.656Z,16.60
2019-04-10T04:12:07.194Z,16.40
2019-04-10T04:13:43.763Z,17.13
2019-04-10T04:15:19.930Z,16.37
2019-04-10T04:16:55.649Z,16.00
2019-04-10T04:18:31.268Z,15.37
2019-04-10T04:20:06.927Z,16.43
2019-04-10T04:21:42.464Z,16.60
2019-04-10T04:23:18.035Z,15.97
2019-04-10T04:24:53.549Z,16.93
2019-04-10T04:26:29.615Z,17.03
2019-04-10T04:28:06.688Z,16.63
2019-04-10T04:29:43.169Z,16.17
2019-04-10T04:31:19.265Z,16.70
2019-04-10T04:32:54.792Z,15.73
2019-04-10T04:34:31.300Z,16.83
2019-04-10T04:36:06.899Z,17.63
2019-04-10T04:37:42.437Z,16.03
2019-04-10T04:39:24.957Z,16.03
2019-04-10T04:40:55.485Z,16.12
2019-04-10T04:42:30.982Z,16.23
2019-04-10T04:44:06.508Z,16.07
2019-04-10T04:45:42.274Z,15.97
2019-04-10T04:47:18.204Z,15.75
2019-04-10T04:48:54.295Z,16.30
2019-04-10T04:50:29.962Z,16.60
2019-04-10T04:52:06.950Z,15.53
2019-04-10T04:53:44.132Z,15.60
2019-04-10T04:55:19.808Z,16.17
2019-04-10T04:56:56.865Z,16.17
2019-04-10T04:58:32.394Z,15.13
2019-04-10T05:00:09.508Z,15.97
2019-04-10T05:01:45.137Z,15.48
2019-04-10T05:03:20.892Z,15.83
2019-04-10T05:04:58.150Z,15.47
2019-04-10T05:06:33.737Z,15.03
2019-04-10T05:08:10.259Z,16.55
2019-04-10T05:09:45.995Z,15.53
2019-04-10T05:11:22.343Z,14.87
2019-04-10T05:12:57.927Z,15.40
2019-04-10T05:14:33.565Z,14.50
2019-04-10T05:16:10.083Z,13.60
2019-04-10T05:17:45.777Z,14.00
2019-04-10T05:19:21.306Z,14.33
2019-04-10T05:20:56.835Z,14.23
2019-04-10T05:22:34.029Z,15.45
2019-04-10T05:24:09.659Z,16.70
2019-04-10T05:25:45.515Z,15.10
2019-04-10T05:27:22.551Z,13.60
2019-04-10T05:28:58.222Z,15.30
2019-04-10T05:30:34.063Z,14.90
2019-04-10T05:32:09.601Z,14.13
2019-04-10T05:33:45.508Z,14.70
2019-04-10T05:35:21.509Z,13.73
2019-04-10T05:36:57.147Z,14.90
2019-04-10T05:38:34.057Z,13.25
2019-04-10T05:40:09.995Z,13.93
2019-04-10T05:41:46.934Z,14.27
2019-04-10T05:43:22.701Z,14.20
2019-04-10T05:44:58.665Z,14.27
2019-04-10T05:46:34.269Z,13.17
2019-04-10T05:48:11.002Z,13.88
2019-04-10T05:49:47.121Z,15.00
2019-04-10T05:51:23.347Z,13.60
2019-04-10T05:53:00.038Z,14.57
2019-04-10T05:54:35.698Z,14.47
2019-04-10T05:56:11.995Z,13.55
2019-04-10T05:57:47.639Z,14.80
2019-04-10T05:59:23.922Z,12.60
2019-04-10T06:01:01.247Z,12.77
2019-04-10T06:02:36.802Z,13.20
2019-04-10T06:04:13.298Z,13.25
2019-04-10T06:05:49.303Z,13.53
2019-04-10T06:07:25.273Z,13.80
2019-04-10T06:09:00.866Z,13.70
2019-04-10T06:10:38.034Z,14.63
2019-04-10T06:12:13.929Z,13.47
2019-04-10T06:13:50.452Z,13.25
2019-04-10T06:15:26.607Z,13.80
2019-04-10T06:17:04.126Z,12.87
2019-04-10T06:18:39.628Z,13.07
2019-04-10T06:20:15.705Z,13.25
2019-04-10T06:21:52.364Z,12.33
2019-04-10T06:23:27.996Z,12.93
2019-04-10T06:25:08.675Z,13.00
2019-04-10T06:26:43.742Z,13.90
2019-04-10T06:28:19.253Z,13.13
2019-04-10T06:29:55.216Z,12.87
2019-04-10T06:31:30.896Z,12.50
2019-04-10T06:33:07.472Z,13.70
2019-04-10T06:34:43.133Z,12.53
2019-04-10T06:36:19.510Z,11.68
2019-04-10T06:37:55.170Z,12.43
2019-04-10T06:39:31.034Z,12.13
2019-04-10T06:41:06.764Z,11.67
2019-04-10T06:42:48.492Z,11.50
2019-04-10T06:44:19.603Z,12.45
2019-04-10T06:45:55.818Z,11.30
2019-04-10T06:47:31.402Z,10.27
2019-04-10T06:49:07.796Z,12.20
2019-04-10T06:50:44.762Z,11.30
2019-04-10T06:52:21.474Z,11.50
2019-04-10T06:54:04.568Z,11.47
2019-04-10T06:55:34.367Z,11.40
2019-04-10T06:57:10.436Z,12.13
2019-04-10T06:58:46.057Z,11.73
2019-04-10T07:00:22.650Z,10.78
2019-04-10T07:02:11.442Z,10.80
2019-04-10T07:03:49.604Z,10.93
2019-04-10T07:05:15.013Z,11.83
2019-04-10T07:06:58.717Z,10.10
2019-04-10T07:08:27.984Z,10.33
2019-04-10T07:10:19.738Z,10.37
2019-04-10T07:11:42.865Z,11.05
2019-04-10T07:13:19.607Z,10.72
2019-04-10T07:14:58.208Z,10.70
2019-04-10T07:16:35.380Z,10.33
2019-04-10T07:18:14.281Z,10.47
2019-04-10T07:19:48.006Z,10.60
2019-04-10T07:21:24.291Z,10.72
2019-04-10T07:22:59.841Z,10.20
2019-04-10T07:24:38.904Z,10.23
2019-04-10T07:26:18.446Z,11.93
2019-04-10T07:27:50.169Z,10.87
2019-04-10T07:29:27.736Z,10.60
2019-04-10T07:31:07.267Z,11.13
2019-04-10T07:32:44.227Z,10.33
2019-04-10T07:34:23.887Z,10.65
2019-04-10T07:35:56.720Z,10.10
2019-04-10T07:37:32.325Z,10.37
2019-04-10T07:39:09.674Z,10.53
2019-04-10T07:40:45.290Z,9.90
2019-04-10T07:42:28.573Z,9.55
2019-04-10T07:43:58.345Z,9.80
2019-04-10T07:45:35.590Z,9.60
2019-04-10T07:47:11.356Z,10.30
2019-04-10T07:48:46.892Z,9.78
2019-04-10T07:50:22.663Z,10.50
2019-04-10T07:51:58.626Z,10.13
2019-04-10T07:53:35.250Z,9.00
2019-04-10T07:55:10.967Z,8.87
2019-04-10T07:56:47.272Z,9.70
2019-04-10T07:58:23.624Z,9.13
2019-04-10T07:59:59.542Z,10.10
2019-04-10T08:01:35.459Z,10.47
2019-04-10T08:03:11.186Z,10.07
2019-04-10T08:04:47.345Z,9.97
2019-04-10T08:06:23.485Z,9.75
2019-04-10T08:07:59.498Z,10.77
2019-04-10T08:09:35.647Z,10.80
2019-04-10T08:11:11.278Z,10.47
2019-04-10T08:12:50.903Z,9.35
2019-04-10T08:14:24.038Z,9.10
2019-04-10T08:16:00.625Z,9.20
2019-04-10T08:17:36.881Z,9.70
2019-04-10T08:19:12.509Z,9.60
2019-04-10T08:20:48.878Z,10.13
2019-04-10T08:22:24.778Z,10.23
2019-04-10T08:24:00.461Z,9.70
2019-04-10T08:25:36.029Z,10.90
2019-04-10T08:27:11.753Z,10.20
2019-04-10T08:28:47.572Z,10.32
2019-04-10T08:30:23.772Z,9.88
2019-04-10T08:31:59.321Z,9.93
2019-04-10T08:33:35.173Z,10.10
2019-04-10T08:35:11.938Z,9.80
2019-04-10T08:36:47.941Z,9.23
2019-04-10T08:38:24.014Z,9.10
2019-04-10T08:39:59.603Z,9.08
2019-04-10T08:41:35.214Z,8.80
2019-04-10T08:43:11.994Z,7.87
2019-04-10T08:44:48.658Z,8.23
2019-04-10T08:46:24.350Z,8.15
2019-04-10T08:47:59.861Z,8.10
2019-04-10T08:49:35.403Z,7.50
2019-04-10T08:51:12.434Z,8.53
2019-04-10T08:52:48.698Z,8.23
2019-04-10T08:54:24.261Z,7.33
2019-04-10T08:56:00.797Z,7.53
2019-04-10T08:57:36.714Z,8.27
2019-04-10T08:59:12.339Z,9.73
2019-04-10T09:00:49.842Z,8.65
2019-04-10T09:02:26.184Z,8.20
2019-04-10T09:04:01.832Z,7.97
2019-04-10T09:05:37.558Z,7.63
2019-04-10T09:07:13.748Z,7.87
2019-04-10T09:08:50.859Z,7.92
2019-04-10T09:10:26.492Z,7.77
2019-04-10T09:12:02.012Z,7.63
2019-04-10T09:13:37.554Z,7.37
2019-04-10T09:15:13.970Z,7.23
2019-04-10T09:16:49.598Z,7.65
2019-04-10T09:18:25.240Z,7.15
2019-04-10T09:20:00.786Z,7.23
2019-04-10T09:21:36.332Z,7.40
2019-04-10T09:23:28.940Z,7.07
2019-04-10T09:24:49.096Z,8.00
2019-04-10T09:26:24.628Z,7.62
2019-04-10T09:28:00.275Z,7.40
2019-04-10T09:29:36.203Z,7.93
2019-04-10T09:31:11.737Z,7.57
2019-04-10T09:32:47.259Z,6.43
2019-04-10T09:34:23.420Z,6.97
2019-04-10T09:35:59.086Z,6.90
2019-04-10T09:37:34.617Z,7.20
2019-04-10T09:39:10.147Z,7.67
2019-04-10T09:40:46.763Z,7.90
2019-04-10T09:42:23.515Z,7.47
2019-04-10T09:44:00.230Z,7.72
2019-04-10T09:45:35.892Z,6.97
2019-04-10T09:47:11.814Z,6.57
2019-04-10T09:48:47.690Z,6.87
2019-04-10T09:50:23.456Z,7.10
2019-04-10T09:52:00.664Z,7.30
2019-04-10T09:53:37.176Z,7.67
2019-04-10T09:55:13.888Z,7.87
2019-04-10T09:56:50.625Z,7.50
2019-04-10T09:58:26.276Z,6.90
2019-04-10T10:00:01.773Z,6.55
2019-04-10T10:01:38.148Z,6.40
2019-04-10T10:03:13.673Z,6.83
2019-04-10T10:04:50.430Z,7.00
2019-04-10T10:06:31.934Z,6.50
2019-04-10T10:08:04.347Z,6.10
2019-04-10T10:09:40.960Z,6.60
2019-04-10T10:11:16.692Z,7.63
2019-04-10T10:12:52.665Z,7.50
2019-04-10T10:14:31.973Z,8.15
2019-04-10T10:16:06.541Z,7.37
2019-04-10T10:17:42.071Z,7.90
2019-04-10T10:19:18.284Z,7.87
2019-04-10T10:20:54.316Z,8.53
2019-04-10T10:22:30.920Z,6.60
2019-04-10T10:24:07.097Z,6.53
2019-04-10T10:25:43.638Z,7.20
2019-04-10T10:27:20.226Z,6.40
2019-04-10T10:28:56.513Z,6.92
2019-04-10T10:30:33.684Z,6.65
2019-04-10T10:32:10.851Z,7.00
2019-04-10T10:33:48.120Z,6.67
2019-04-10T10:35:23.722Z,6.40
2019-04-10T10:37:00.111Z,6.67
2019-04-10T10:38:35.661Z,6.77
2019-04-10T10:40:12.440Z,7.20
2019-04-10T10:41:48.972Z,7.70
2019-04-10T10:43:24.710Z,7.53
2019-04-10T10:45:00.630Z,8.13
2019-04-10T10:46:36.277Z,6.33
2019-04-10T10:48:11.791Z,6.47
2019-04-10T10:49:48.734Z,7.33
2019-04-10T10:51:24.293Z,7.45
2019-04-10T10:52:59.843Z,6.40
2019-04-10T10:54:35.372Z,7.03
2019-04-10T10:56:11.855Z,7.47
2019-04-10T10:57:47.815Z,6.40
2019-04-10T10:59:23.331Z,6.42
2019-04-10T11:00:59.853Z,6.97
2019-04-10T11:02:36.327Z,6.60
2019-04-10T11:04:12.947Z,7.80
2019-04-10T11:05:50.654Z,7.78
2019-04-10T11:07:27.006Z,7.10
2019-04-10T11:09:04.111Z,8.47
2019-04-10T11:10:41.347Z,7.60
2019-04-10T11:12:17.696Z,7.57
2019-04-10T11:13:53.401Z,8.63
2019-04-10T11:15:28.966Z,7.72
2019-04-10T11:17:05.412Z,7.67
2019-04-10T11:18:42.428Z,7.90
2019-04-10T11:20:18.071Z,8.00
2019-04-10T11:21:54.693Z,7.60
2019-04-10T11:23:30.615Z,8.60
2019-04-10T11:25:08.078Z,7.72
2019-04-10T11:26:44.003Z,7.87
2019-04-10T11:28:20.686Z,8.27
2019-04-10T11:29:57.546Z,7.40
2019-04-10T11:31:33.343Z,7.45
2019-04-10T11:33:10.973Z,8.23
2019-04-10T11:34:46.920Z,7.87
2019-04-10T11:36:23.601Z,8.80
2019-04-10T11:38:00.994Z,8.55
2019-04-10T11:39:39.977Z,9.60
2019-04-10T11:41:14.997Z,9.03
2019-04-10T11:42:51.526Z,8.70
2019-04-10T11:44:28.370Z,9.03
2019-04-10T11:46:04.192Z,7.90
2019-04-10T11:47:40.372Z,7.83
2019-04-10T11:49:17.815Z,7.67
2019-04-10T11:50:58.991Z,6.90
2019-04-10T11:52:38.634Z,8.18
2019-04-10T11:54:12.441Z,8.35
2019-04-10T11:55:50.203Z,8.53
2019-04-10T11:57:23.102Z,9.10
2019-04-10T11:58:59.176Z,9.27
2019-04-10T12:00:47.498Z,7.85
2019-04-10T12:02:21.141Z,7.83
2019-04-10T12:03:56.683Z,8.63
2019-04-10T12:05:32.084Z,8.13
2019-04-10T12:07:09.779Z,7.20
2019-04-10T12:09:09.578Z,6.63
2019-04-10T12:11:59.712Z,6.45
2019-04-10T12:13:35.237Z,6.60
2019-04-10T12:15:10.910Z,5.63
2019-04-10T12:16:47.415Z,6.30
2019-04-10T12:18:23.051Z,6.70
2019-04-10T12:19:58.583Z,6.60
2019-04-10T12:21:34.459Z,6.47
2019-04-10T12:23:10.699Z,6.73
2019-04-10T12:24:49.673Z,6.40
2019-04-10T12:26:23.776Z,6.90
2019-04-10T12:27:59.388Z,7.40
2019-04-10T12:29:35.022Z,7.58
2019-04-10T12:31:10.536Z,7.37
2019-04-10T12:32:47.410Z,6.87
2019-04-10T12:34:24.318Z,6.60
2019-04-10T12:36:00.406Z,6.25
2019-04-10T12:37:36.912Z,5.97
2019-04-10T12:39:12.630Z,6.57
2019-04-10T12:40:48.415Z,6.60
2019-04-10T12:42:24.239Z,6.30
2019-04-10T12:43:59.767Z,6.55
2019-04-10T12:45:36.008Z,6.12
2019-04-10T12:47:11.712Z,5.65
2019-04-10T12:48:47.321Z,6.37
2019-04-10T12:50:22.910Z,6.07
2019-04-10T12:52:00.334Z,6.12
2019-04-10T12:53:35.932Z,5.30
2019-04-10T12:55:12.281Z,5.97
2019-04-10T12:56:48.522Z,5.50
2019-04-10T12:58:25.133Z,5.83
2019-04-10T13:00:04.159Z,5.70
2019-04-10T13:01:39.156Z,6.03
2019-04-10T13:03:15.042Z,6.57
2019-04-10T13:04:50.561Z,6.00
2019-04-10T13:06:26.286Z,5.60
2019-04-10T13:08:14.653Z,5.97
2019-04-10T13:09:40.154Z,6.03
2019-04-10T13:11:16.279Z,5.87
2019-04-10T13:12:51.857Z,5.50
2019-04-10T13:14:27.490Z,6.67
2019-04-10T13:16:03.647Z,6.22
2019-04-10T13:17:39.172Z,6.37
2019-04-10T13:19:16.590Z,5.70
2019-04-10T13:20:52.227Z,6.10
2019-04-10T13:22:28.481Z,6.50
2019-04-10T13:24:04.195Z,6.43
2019-04-10T13:25:40.748Z,6.40
2019-04-10T13:27:16.776Z,6.33
2019-04-10T13:28:52.361Z,6.67
2019-04-10T13:30:39.977Z,5.90
2019-04-10T13:32:07.656Z,6.45
2019-04-10T13:33:43.274Z,5.78
2019-04-10T13:35:18.845Z,5.77
2019-04-10T13:36:55.675Z,5.53
2019-04-10T13:38:33.975Z,5.87
2019-04-10T13:40:09.272Z,6.03
2019-04-10T13:41:45.794Z,5.75
2019-04-10T13:43:22.151Z,6.10
2019-04-10T13:44:57.837Z,6.80
2019-04-10T13:46:35.250Z,6.37
2019-04-10T13:48:10.833Z,6.80
2019-04-10T13:49:46.388Z,6.03
2019-04-10T13:51:21.901Z,6.27
2019-04-10T13:52:58.015Z,5.47
2019-04-10T13:54:34.565Z,6.05
2019-04-10T13:56:10.154Z,5.65
2019-04-10T13:57:46.626Z,6.20
2019-04-10T13:59:22.673Z,5.97
2019-04-10T14:00:59.027Z,5.57
2019-04-10T14:02:37.225Z,6.05
2019-04-10T14:04:13.004Z,5.62
2019-04-10T14:05:49.434Z,6.27
2019-04-10T14:07:25.351Z,6.30
2019-04-10T14:09:16.504Z,5.73
2019-04-10T14:10:41.814Z,5.58
2019-04-10T14:12:18.637Z,5.83
2019-04-10T14:13:54.342Z,5.33
2019-04-10T14:15:30.370Z,6.40
2019-04-10T14:17:06.934Z,6.20
2019-04-10T14:18:43.141Z,6.45
2019-04-10T14:20:20.312Z,6.30
2019-04-10T14:21:57.533Z,5.87
2019-04-10T14:23:33.318Z,5.40
2019-04-10T14:25:23.122Z,6.10
2019-04-10T14:27:14.171Z,5.85
2019-04-10T14:28:49.937Z,6.10
2019-04-10T14:30:27.207Z,6.33
2019-04-10T14:32:05.048Z,6.17
2019-04-10T14:33:40.619Z,5.67
2019-04-10T14:35:16.820Z,6.30
2019-04-10T14:36:52.729Z,6.70
2019-04-10T14:38:28.346Z,5.90
2019-04-10T14:40:08.407Z,6.17
2019-04-10T14:41:44.251Z,6.30
2019-04-10T14:43:20.842Z,5.43
2019-04-10T14:44:57.183Z,6.17
2019-04-10T14:46:33.711Z,5.60
2019-04-10T14:48:09.236Z,6.30
2019-04-10T14:49:45.169Z,6.30
2019-04-10T14:51:21.976Z,5.77
2019-04-10T14:52:59.195Z,5.50
2019-04-10T14:54:35.682Z,5.90
2019-04-10T14:56:11.945Z,6.83
2019-04-10T14:57:47.482Z,5.65
2019-04-10T14:59:24.029Z,6.73
2019-04-10T15:00:59.826Z,6.60
2019-04-10T15:02:35.515Z,5.33
2019-04-10T15:04:11.054Z,4.95
2019-04-10T15:05:51.000Z,5.83
2019-04-10T15:07:24.271Z,5.60
2019-04-10T15:08:59.909Z,6.17
2019-04-10T15:10:35.413Z,6.70
2019-04-10T15:12:10.940Z,6.27
2019-04-10T15:13:46.755Z,5.70
2019-04-10T15:15:22.563Z,5.60
2019-04-10T15:17:01.767Z,6.03
2019-04-10T15:18:35.298Z,6.37
2019-04-10T15:20:11.190Z,6.00
2019-04-10T15:21:47.165Z,6.00
2019-04-10T15:23:22.721Z,6.60
2019-04-10T15:24:59.278Z,6.07
2019-04-10T15:26:36.143Z,5.90
2019-04-10T15:28:11.706Z,5.45
2019-04-10T15:29:47.238Z,5.58
2019-04-10T15:31:24.960Z,7.00
2019-04-10T15:33:00.424Z,7.40
2019-04-10T15:34:36.008Z,5.60
2019-04-10T15:36:11.791Z,5.93
2019-04-10T15:37:47.366Z,4.72
2019-04-10T15:39:32.047Z,5.17
2019-04-10T15:41:00.911Z,5.17
2019-04-10T15:42:37.420Z,5.90
2019-04-10T15:44:14.889Z,5.45
2019-04-10T15:45:50.494Z,5.08
2019-04-10T15:47:27.033Z,5.83
2019-04-10T15:49:04.154Z,5.85
2019-04-10T15:50:41.350Z,5.55
2019-04-10T15:52:17.725Z,6.30
2019-04-10T15:53:53.566Z,6.10
2019-04-10T15:55:29.937Z,5.93
2019-04-10T15:57:06.911Z,5.43
2019-04-10T15:58:43.695Z,5.20
2019-04-10T16:00:21.215Z,5.97
2019-04-10T16:01:57.326Z,6.07
2019-04-10T16:03:32.913Z,5.23
2019-04-10T16:05:09.174Z,5.03
2019-04-10T16:06:45.881Z,5.72
2019-04-10T16:08:22.299Z,5.70
2019-04-10T16:10:02.348Z,6.03
2019-04-10T16:11:45.916Z,5.33
2019-04-10T16:13:24.048Z,5.35
2019-04-10T16:15:00.564Z,5.90
2019-04-10T16:16:48.787Z,6.10
2019-04-10T16:18:28.766Z,5.40
2019-04-10T16:20:13.740Z,5.77
2019-04-10T16:21:50.089Z,5.92
2019-04-10T16:23:37.660Z,5.70
2019-04-10T16:25:15.808Z,6.15
2019-04-10T16:26:51.732Z,6.47
2019-04-10T16:28:27.384Z,5.87
2019-04-10T16:30:03.856Z,6.10
2019-04-10T16:31:39.758Z,6.17
2019-04-10T16:33:15.298Z,6.20
2019-04-10T16:35:01.462Z,6.20
2019-04-10T16:36:50.099Z,6.92
2019-04-10T16:38:46.959Z,6.83
2019-04-10T16:40:26.862Z,6.70
2019-04-10T16:42:02.318Z,6.12
2019-04-10T16:43:38.518Z,6.03
2019-04-10T16:45:15.739Z,6.20
2019-04-10T16:46:53.153Z,5.90
2019-04-10T16:48:28.806Z,6.67
2019-04-10T16:50:07.093Z,6.80
2019-04-10T16:51:42.668Z,6.43
2019-04-10T16:53:20.111Z,6.15
2019-04-10T16:54:55.681Z,6.40
2019-04-10T16:56:31.855Z,6.03
2019-04-10T16:58:07.698Z,6.40
2019-04-10T16:59:43.342Z,6.00
2019-04-10T17:01:18.878Z,6.00
2019-04-10T17:02:54.407Z,6.10
2019-04-10T17:04:29.929Z,6.13
2019-04-10T17:06:06.053Z,6.43
2019-04-10T17:07:43.412Z,6.50
2019-04-10T17:09:23.087Z,6.20
2019-04-10T17:10:58.843Z,5.73
2019-04-10T17:12:34.541Z,6.03
2019-04-10T17:14:11.026Z,6.50
2019-04-10T17:15:48.638Z,6.45
2019-04-10T17:17:23.965Z,6.75
2019-04-10T17:18:59.483Z,6.23
2019-04-10T17:20:35.923Z,6.67
2019-04-10T17:22:11.790Z,6.60
2019-04-10T17:23:47.563Z,6.97
2019-04-10T17:25:24.304Z,7.15
2019-04-10T17:27:01.458Z,7.10
2019-04-10T17:28:37.220Z,7.30
2019-04-10T17:30:13.587Z,6.93
2019-04-10T17:31:49.114Z,9.00
2019-04-10T17:33:25.477Z,7.50
2019-04-10T17:35:03.148Z,7.77
2019-04-10T17:36:41.027Z,6.43
2019-04-10T17:38:16.774Z,6.63
2019-04-10T17:39:52.423Z,7.00
2019-04-10T17:41:28.094Z,6.33
2019-04-10T17:43:05.076Z,6.00
2019-04-10T17:44:41.997Z,5.53
2019-04-10T17:46:19.395Z,6.20
2019-04-10T17:47:56.463Z,6.03
2019-04-10T17:49:33.891Z,6.57
2019-04-10T17:51:11.954Z,6.57
2019-04-10T17:52:49.048Z,5.40
2019-04-10T17:54:25.080Z,5.78
2019-04-10T17:56:02.101Z,5.70
2019-04-10T17:57:40.398Z,6.17
2019-04-10T17:59:16.966Z,5.83
2019-04-10T18:00:54.172Z,6.25
2019-04-10T18:02:30.637Z,5.97
2019-04-10T18:04:07.527Z,5.60
2019-04-10T18:05:43.199Z,6.33
2019-04-10T18:07:19.678Z,6.50
2019-04-10T18:08:55.368Z,5.75
2019-04-10T18:10:42.696Z,6.00
2019-04-10T18:12:10.028Z,5.87
2019-04-10T18:13:46.878Z,6.00
2019-04-10T18:15:24.139Z,6.22
2019-04-10T18:17:00.453Z,6.28
2019-04-10T18:18:35.983Z,5.70
2019-04-10T18:20:12.619Z,5.58
2019-04-10T18:21:47.935Z,6.17
2019-04-10T18:23:25.086Z,6.28
2019-04-10T18:25:01.298Z,6.00
2019-04-10T18:26:36.890Z,6.97
2019-04-10T18:28:13.638Z,6.33
2019-04-10T18:29:49.635Z,5.75
2019-04-10T18:31:26.467Z,5.30
2019-04-10T18:33:03.395Z,4.60
2019-04-10T18:34:40.377Z,4.80
2019-04-10T18:36:17.525Z,4.73
2019-04-10T18:37:55.112Z,4.57
2019-04-10T18:39:30.707Z,4.10
2019-04-10T18:41:08.368Z,4.67
2019-04-10T18:42:43.795Z,5.00
2019-04-10T18:44:20.525Z,4.57
2019-04-10T18:46:06.135Z,4.40
2019-04-10T18:47:36.433Z,4.10
2019-04-10T18:49:11.458Z,4.67
2019-04-10T18:50:47.509Z,4.50
2019-04-10T18:52:23.477Z,4.53
2019-04-10T18:53:59.691Z,4.80
2019-04-10T18:55:36.378Z,4.90
2019-04-10T18:57:12.099Z,4.60
2019-04-10T18:58:49.527Z,4.57
2019-04-10T19:00:40.618Z,4.58
2019-04-10T19:02:18.336Z,4.27
2019-04-10T19:04:02.347Z,5.75
2019-04-10T19:05:43.675Z,6.73
2019-04-10T19:07:19.499Z,5.40
2019-04-10T19:09:06.382Z,4.55
2019-04-10T19:10:34.641Z,4.80
2019-04-10T19:12:10.797Z,3.70
2019-04-10T19:13:46.740Z,3.97
2019-04-10T19:15:22.460Z,3.90
2019-04-10T19:16:58.259Z,4.08
2019-04-10T19:18:33.500Z,3.93
2019-04-10T19:20:10.959Z,4.10
2019-04-10T19:21:48.329Z,4.20
2019-04-10T19:23:24.006Z,4.20
2019-04-10T19:25:00.723Z,4.35
2019-04-10T19:26:37.769Z,4.37
2019-04-10T19:28:12.926Z,3.83
2019-04-10T19:29:48.730Z,4.07
2019-04-10T19:31:25.901Z,3.90
2019-04-10T19:33:01.722Z,4.20
2019-04-10T19:34:39.302Z,4.10
2019-04-10T19:36:15.776Z,4.10
2019-04-10T19:37:51.577Z,4.13
2019-04-10T19:39:29.911Z,4.80
2019-04-10T19:41:05.893Z,5.43
2019-04-10T19:42:41.785Z,6.33
2019-04-10T19:44:19.090Z,8.63
2019-04-10T19:45:54.425Z,6.22
2019-04-10T19:47:30.491Z,5.40
2019-04-10T19:49:06.196Z,4.60
2019-04-10T19:50:41.704Z,4.93
2019-04-10T19:52:18.216Z,5.00
2019-04-10T19:53:53.662Z,4.90
2019-04-10T19:55:29.542Z,4.87
2019-04-10T19:57:05.473Z,4.30
2019-04-10T19:58:40.573Z,4.80
2019-04-10T20:00:16.711Z,4.40
2019-04-10T20:01:52.740Z,4.50
2019-04-10T20:03:28.257Z,5.20
2019-04-10T20:05:05.279Z,5.05
2019-04-10T20:06:40.751Z,4.50
2019-04-10T20:08:16.108Z,5.23
2019-04-10T20:09:52.715Z,5.50
2019-04-10T20:11:37.580Z,5.10
2019-04-10T20:13:06.833Z,4.67
2019-04-10T20:14:42.486Z,4.80
2019-04-10T20:16:19.341Z,4.50
2019-04-10T20:17:54.900Z,5.03
2019-04-10T20:19:30.722Z,4.93
2019-04-10T20:21:06.369Z,5.30
2019-04-10T20:22:41.901Z,4.87
2019-04-10T20:24:17.396Z,5.00
2019-04-10T20:25:52.842Z,5.27
2019-04-10T20:27:27.967Z,6.20
2019-04-10T20:29:04.493Z,5.47
2019-04-10T20:30:40.506Z,6.50
2019-04-10T20:32:16.022Z,6.40
2019-04-10T20:33:51.467Z,5.27
2019-04-10T20:35:26.683Z,4.80
2019-04-10T20:37:06.647Z,5.00
2019-04-10T20:38:38.941Z,4.80
2019-04-10T20:40:14.443Z,5.33
2019-04-10T20:41:54.682Z,5.27
2019-04-10T20:43:29.503Z,4.90
2019-04-10T20:45:05.245Z,5.00
2019-04-10T20:46:40.714Z,4.93
2019-04-10T20:48:16.150Z,5.77
2019-04-10T20:49:51.617Z,5.73
2019-04-10T20:51:28.267Z,5.40
2019-04-10T20:53:04.067Z,5.62
2019-04-10T20:54:41.240Z,5.10
2019-04-10T20:56:18.299Z,5.20
2019-04-10T20:57:54.202Z,5.70
2019-04-10T20:59:30.565Z,5.15
2019-04-10T21:01:06.155Z,5.30
2019-04-10T21:02:41.324Z,5.27
2019-04-10T21:04:17.026Z,5.45
2019-04-10T21:05:52.803Z,5.33
2019-04-10T21:07:28.339Z,6.10
2019-04-10T21:09:05.399Z,5.80
2019-04-10T21:10:41.469Z,5.60